createdAt,value
2018-06-25T00:01:23.557Z,16.12
2018-06-25T00:03:51.677Z,16.07
2018-06-25T00:06:19.863Z,16.06
2018-06-25T00:08:47.944Z,16.03
2018-06-25T00:11:16.028Z,16.04
2018-06-25T00:13:44.146Z,15.98
2018-06-25T00:16:12.326Z,15.97
2018-06-25T00:18:40.638Z,15.98
2018-06-25T00:21:08.741Z,16.02
2018-06-25T00:23:36.825Z,15.97
2018-06-25T00:26:05.004Z,15.94
2018-06-25T00:28:34.020Z,15.94
2018-06-25T00:31:02.279Z,16.00
2018-06-25T00:33:30.376Z,15.85
2018-06-25T00:35:58.474Z,15.81
2018-06-25T00:38:26.545Z,15.79
2018-06-25T00:40:54.857Z,15.87
2018-06-25T00:43:22.960Z,15.81
2018-06-25T00:45:51.024Z,15.75
2018-06-25T00:48:19.158Z,15.79
2018-06-25T00:50:47.219Z,15.70
2018-06-25T00:53:15.513Z,15.71
2018-06-25T00:55:43.740Z,15.69
2018-06-25T00:58:12.121Z,15.73
2018-06-25T01:00:40.248Z,15.71
2018-06-25T01:03:08.860Z,15.71
2018-06-25T01:05:37.105Z,15.68
2018-06-25T01:08:05.663Z,15.65
2018-06-25T01:10:33.772Z,15.63
2018-06-25T01:13:01.848Z,15.59
2018-06-25T01:15:30.121Z,15.58
2018-06-25T01:17:58.226Z,15.59
2018-06-25T01:20:26.379Z,15.57
2018-06-25T01:22:54.686Z,15.55
2018-06-25T01:25:22.781Z,15.53
2018-06-25T01:27:50.848Z,15.53
2018-06-25T01:30:18.924Z,15.47
2018-06-25T01:32:47.000Z,15.48
2018-06-25T01:35:15.123Z,15.49
2018-06-25T01:37:43.265Z,15.49
2018-06-25T01:40:11.504Z,15.46
2018-06-25T01:42:39.583Z,15.55
2018-06-25T01:45:07.725Z,15.48
2018-06-25T01:47:36.226Z,15.47
2018-06-25T01:50:04.355Z,15.49
2018-06-25T01:52:32.489Z,15.42
2018-06-25T01:55:00.616Z,15.34
2018-06-25T01:57:28.745Z,15.28
2018-06-25T01:59:56.871Z,15.29
2018-06-25T02:02:24.953Z,15.28
2018-06-25T02:04:53.023Z,15.26
2018-06-25T02:07:21.242Z,15.24
2018-06-25T02:09:49.312Z,15.23
2018-06-25T02:12:17.737Z,15.17
2018-06-25T02:14:45.812Z,15.15
2018-06-25T02:17:13.965Z,15.13
2018-06-25T02:19:42.164Z,15.15
2018-06-25T02:22:10.263Z,15.08
2018-06-25T02:24:38.351Z,15.08
2018-06-25T02:27:07.341Z,15.06
2018-06-25T02:29:35.429Z,15.04
2018-06-25T02:32:03.524Z,15.05
2018-06-25T02:34:31.617Z,15.04
2018-06-25T02:36:59.698Z,15.03
2018-06-25T02:39:27.797Z,15.02
2018-06-25T02:41:55.940Z,15.00
2018-06-25T02:44:24.049Z,14.96
2018-06-25T02:46:52.116Z,14.94
2018-06-25T02:49:20.228Z,14.91
2018-06-25T02:51:48.313Z,14.87
2018-06-25T02:54:16.421Z,14.87
2018-06-25T02:56:44.493Z,14.87
2018-06-25T02:59:12.687Z,14.80
2018-06-25T03:01:40.854Z,14.77
2018-06-25T03:04:08.927Z,14.73
2018-06-25T03:06:37.076Z,14.68
2018-06-25T03:09:07.631Z,14.66
2018-06-25T03:11:35.741Z,14.59
2018-06-25T03:14:03.864Z,14.66
2018-06-25T03:16:32.001Z,14.56
2018-06-25T03:19:00.084Z,14.48
2018-06-25T03:21:28.237Z,14.42
2018-06-25T03:23:56.373Z,14.43
2018-06-25T03:26:24.459Z,14.36
2018-06-25T03:28:52.572Z,14.37
2018-06-25T03:31:20.669Z,14.36
2018-06-25T03:33:48.769Z,14.32
2018-06-25T03:36:16.852Z,14.46
2018-06-25T03:38:44.924Z,14.57
2018-06-25T03:41:12.995Z,14.73
2018-06-25T03:43:41.393Z,14.75
2018-06-25T03:46:10.073Z,14.78
2018-06-25T03:48:38.313Z,14.72
2018-06-25T03:51:06.415Z,14.77
2018-06-25T03:53:34.519Z,14.64
2018-06-25T03:56:02.608Z,14.45
2018-06-25T03:58:30.749Z,14.49
2018-06-25T04:00:58.882Z,14.42
2018-06-25T04:03:27.218Z,14.36
2018-06-25T04:05:55.301Z,14.29
2018-06-25T04:08:23.380Z,14.30
2018-06-25T04:10:51.773Z,14.47
2018-06-25T04:13:19.845Z,14.53
2018-06-25T04:15:47.940Z,14.42
2018-06-25T04:18:16.064Z,14.34
2018-06-25T04:20:44.353Z,14.38
2018-06-25T04:23:12.418Z,14.44
2018-06-25T04:25:41.265Z,14.32
2018-06-25T04:28:09.351Z,14.39
2018-06-25T04:30:37.431Z,14.58
2018-06-25T04:33:05.570Z,14.70
2018-06-25T04:35:33.655Z,14.76
2018-06-25T04:38:01.747Z,14.74
2018-06-25T04:40:29.853Z,14.90
2018-06-25T04:42:57.936Z,14.99
2018-06-25T04:45:26.024Z,15.17
2018-06-25T04:47:54.091Z,15.39
2018-06-25T04:50:22.197Z,15.33
2018-06-25T04:52:50.388Z,15.23
2018-06-25T04:55:18.464Z,15.51
2018-06-25T04:57:46.555Z,15.59
2018-06-25T05:00:14.643Z,15.27
2018-06-25T05:02:42.748Z,15.14
2018-06-25T05:05:10.830Z,15.20
2018-06-25T05:07:38.919Z,15.39
2018-06-25T05:10:07.001Z,15.11
2018-06-25T05:12:35.073Z,15.12
2018-06-25T05:15:03.136Z,15.29
2018-06-25T05:17:31.239Z,15.56
2018-06-25T05:19:59.316Z,15.83
2018-06-25T05:22:27.404Z,16.07
2018-06-25T05:24:55.501Z,16.22
2018-06-25T05:27:23.603Z,16.28
2018-06-25T05:29:51.681Z,16.21
2018-06-25T05:32:19.752Z,16.23
2018-06-25T05:34:47.820Z,16.49
2018-06-25T05:37:15.912Z,16.73
2018-06-25T05:39:44.049Z,16.89
2018-06-25T05:42:17.460Z,16.95
2018-06-25T05:44:45.532Z,17.17
2018-06-25T05:47:14.199Z,17.36
2018-06-25T05:49:43.119Z,17.42
2018-06-25T05:52:11.210Z,17.49
2018-06-25T05:54:39.509Z,17.47
2018-06-25T05:57:07.610Z,16.93
2018-06-25T05:59:35.688Z,17.00
2018-06-25T06:02:03.772Z,17.08
2018-06-25T06:04:31.845Z,17.16
2018-06-25T06:06:59.962Z,17.38
2018-06-25T06:09:28.044Z,17.74
2018-06-25T06:11:56.336Z,17.56
2018-06-25T06:14:24.425Z,17.14
2018-06-25T06:16:52.780Z,16.84
2018-06-25T06:19:20.877Z,16.66
2018-06-25T06:21:49.296Z,16.95
2018-06-25T06:24:17.389Z,17.15
2018-06-25T06:26:45.732Z,17.40
2018-06-25T06:29:13.824Z,17.31
2018-06-25T06:31:41.900Z,17.13
2018-06-25T06:34:09.993Z,17.03
2018-06-25T06:36:38.063Z,17.14
2018-06-25T06:39:09.823Z,17.27
2018-06-25T06:41:37.908Z,17.49
2018-06-25T06:44:06.029Z,17.42
2018-06-25T06:46:34.106Z,17.36
2018-06-25T06:49:02.538Z,17.40
2018-06-25T06:51:30.948Z,17.60
2018-06-25T06:53:58.999Z,17.78
2018-06-25T06:56:27.140Z,17.65
2018-06-25T06:58:55.240Z,17.68
2018-06-25T07:01:23.617Z,17.89
2018-06-25T07:03:51.729Z,18.04
2018-06-25T07:06:20.056Z,18.13
2018-06-25T07:08:48.172Z,17.87
2018-06-25T07:11:16.251Z,17.49
2018-06-25T07:13:44.331Z,17.08
2018-06-25T07:16:12.464Z,17.17
2018-06-25T07:18:40.592Z,17.43
2018-06-25T07:21:08.668Z,17.76
2018-06-25T07:23:36.774Z,17.74
2018-06-25T07:26:05.165Z,17.78
2018-06-25T07:28:33.251Z,17.47
2018-06-25T07:31:02.795Z,17.53
2018-06-25T07:33:31.161Z,17.17
2018-06-25T07:35:59.260Z,17.11
2018-06-25T07:38:27.331Z,17.23
2018-06-25T07:40:55.441Z,17.57
2018-06-25T07:43:23.516Z,17.64
2018-06-25T07:45:51.602Z,17.55
2018-06-25T07:48:19.681Z,18.00
2018-06-25T07:50:47.761Z,18.35
2018-06-25T07:53:15.911Z,18.74
2018-06-25T07:55:43.994Z,18.51
2018-06-25T07:58:12.096Z,18.45
2018-06-25T08:00:40.185Z,18.20
2018-06-25T08:03:08.247Z,18.37
2018-06-25T08:05:36.336Z,18.40
2018-06-25T08:08:04.424Z,18.44
2018-06-25T08:10:32.519Z,18.61
2018-06-25T08:13:00.941Z,17.82
2018-06-25T08:15:29.048Z,18.11
2018-06-25T08:17:57.132Z,17.53
2018-06-25T08:20:25.306Z,17.78
2018-06-25T08:22:53.509Z,17.66
2018-06-25T08:25:21.612Z,17.86
2018-06-25T08:27:49.695Z,18.29
2018-06-25T08:30:17.800Z,18.47
2018-06-25T08:32:45.897Z,18.93
2018-06-25T08:35:14.029Z,18.98
2018-06-25T08:37:42.157Z,19.70
2018-06-25T08:40:10.286Z,19.88
2018-06-25T08:42:38.345Z,19.60
2018-06-25T08:45:06.442Z,19.37
2018-06-25T08:47:34.568Z,18.96
2018-06-25T08:50:02.659Z,18.61
2018-06-25T08:52:30.860Z,18.75
2018-06-25T08:54:58.964Z,19.16
2018-06-25T08:57:27.076Z,19.05
2018-06-25T08:59:55.175Z,19.29
2018-06-25T09:02:23.252Z,18.96
2018-06-25T09:04:51.682Z,18.90
2018-06-25T09:07:19.763Z,19.04
2018-06-25T09:09:47.886Z,18.81
2018-06-25T09:12:15.982Z,18.25
2018-06-25T09:14:44.072Z,18.21
2018-06-25T09:17:12.416Z,18.52
2018-06-25T09:19:40.530Z,19.26
2018-06-25T09:22:08.669Z,19.86
2018-06-25T09:24:36.700Z,19.93
2018-06-25T09:27:05.027Z,19.35
2018-06-25T09:29:33.104Z,19.65
2018-06-25T09:32:01.681Z,19.18
2018-06-25T09:34:35.167Z,19.33
2018-06-25T09:37:03.269Z,20.06
2018-06-25T09:39:31.356Z,20.28
2018-06-25T09:41:59.488Z,19.37
2018-06-25T09:44:27.560Z,19.15
2018-06-25T09:46:55.672Z,19.18
2018-06-25T09:49:23.775Z,19.66
2018-06-25T09:51:51.850Z,19.33
2018-06-25T09:54:19.951Z,19.74
2018-06-25T09:56:48.057Z,20.15
2018-06-25T09:59:16.144Z,20.25
2018-06-25T10:01:44.429Z,20.71
2018-06-25T10:04:12.512Z,20.78
2018-06-25T10:06:40.621Z,20.55
2018-06-25T10:09:10.444Z,20.64
2018-06-25T10:11:38.708Z,20.85
2018-06-25T10:14:06.981Z,20.70
2018-06-25T10:16:35.162Z,20.72
2018-06-25T10:19:03.636Z,20.61
2018-06-25T10:21:31.711Z,20.85
2018-06-25T10:23:59.804Z,20.95
2018-06-25T10:26:27.876Z,20.23
2018-06-25T10:28:56.820Z,19.87
2018-06-25T10:31:24.902Z,19.84
2018-06-25T10:33:52.988Z,20.02
2018-06-25T10:36:21.082Z,19.91
2018-06-25T10:38:49.164Z,20.62
2018-06-25T10:41:17.232Z,20.86
2018-06-25T10:43:45.317Z,20.06
2018-06-25T10:46:13.397Z,20.62
2018-06-25T10:48:41.498Z,20.90
2018-06-25T10:51:09.625Z,20.99
2018-06-25T10:53:37.712Z,20.65
2018-06-25T10:56:05.796Z,21.19
2018-06-25T10:58:33.880Z,21.37
2018-06-25T11:01:02.016Z,21.80
2018-06-25T11:03:30.122Z,21.68
2018-06-25T11:05:58.789Z,21.46
2018-06-25T11:08:27.040Z,21.35
2018-06-25T11:10:55.552Z,21.41
2018-06-25T11:13:23.646Z,21.64
2018-06-25T11:15:51.739Z,21.33
2018-06-25T11:18:19.840Z,21.86
2018-06-25T11:20:47.984Z,22.03
2018-06-25T11:23:16.072Z,21.75
2018-06-25T11:25:44.224Z,20.96
2018-06-25T11:28:12.320Z,21.19
2018-06-25T11:30:40.438Z,20.97
2018-06-25T11:33:08.540Z,20.47
2018-06-25T11:35:36.623Z,20.83
2018-06-25T11:38:04.820Z,20.55
2018-06-25T11:40:32.984Z,20.84
2018-06-25T11:43:01.077Z,21.04
2018-06-25T11:45:29.797Z,21.48
2018-06-25T11:47:57.972Z,21.69
2018-06-25T11:50:26.112Z,21.49
2018-06-25T11:52:54.185Z,20.82
2018-06-25T11:55:22.284Z,21.39
2018-06-25T11:57:50.356Z,21.09
2018-06-25T12:00:18.494Z,21.55
2018-06-25T12:02:47.005Z,20.98
2018-06-25T12:05:15.048Z,20.56
2018-06-25T12:07:43.130Z,20.92
2018-06-25T12:10:11.253Z,21.20
2018-06-25T12:12:39.416Z,21.50
2018-06-25T12:15:07.669Z,21.29
2018-06-25T12:17:36.585Z,21.43
2018-06-25T12:20:04.631Z,21.43
2018-06-25T12:22:32.738Z,20.76
2018-06-25T12:25:00.814Z,20.50
2018-06-25T12:27:29.016Z,20.58
2018-06-25T12:29:57.102Z,20.34
2018-06-25T12:32:25.177Z,20.82
2018-06-25T12:34:53.284Z,21.57
2018-06-25T12:37:21.369Z,21.94
2018-06-25T12:39:49.474Z,21.67
2018-06-25T12:42:17.541Z,21.37
2018-06-25T12:44:45.616Z,22.26
2018-06-25T12:47:13.689Z,22.96
2018-06-25T12:49:41.802Z,23.46
2018-06-25T12:52:09.901Z,23.32
2018-06-25T12:54:38.000Z,23.01
2018-06-25T12:57:06.138Z,22.12
2018-06-25T12:59:34.199Z,22.30
2018-06-25T13:02:02.258Z,21.72
2018-06-25T13:04:30.351Z,21.29
2018-06-25T13:06:58.811Z,21.31
2018-06-25T13:09:26.898Z,21.27
2018-06-25T13:11:55.037Z,21.54
2018-06-25T22:02:36.299Z,15.61
2018-06-25T22:05:04.389Z,15.61
2018-06-25T22:07:32.465Z,15.53
2018-06-25T22:10:00.652Z,15.52
2018-06-25T22:12:28.724Z,15.42
2018-06-25T22:14:56.967Z,15.35
2018-06-25T22:17:25.210Z,15.38
2018-06-25T22:19:53.591Z,15.30
2018-06-25T22:22:21.784Z,15.28
2018-06-25T22:24:49.852Z,15.29
2018-06-25T22:27:17.944Z,15.48
2018-06-25T22:29:46.115Z,15.40
2018-06-25T22:32:14.224Z,15.51
2018-06-25T22:34:42.352Z,15.53
2018-06-25T22:37:10.435Z,15.38
2018-06-25T22:39:38.504Z,15.29
2018-06-25T22:42:06.700Z,15.10
2018-06-25T22:44:34.780Z,15.09
2018-06-25T22:47:02.933Z,14.99
2018-06-25T22:49:31.282Z,15.03
2018-06-25T22:51:59.554Z,15.03
2018-06-25T22:54:27.647Z,14.99
2018-06-25T22:56:55.747Z,15.08
2018-06-25T22:59:23.874Z,15.09
2018-06-25T23:01:52.051Z,15.01
2018-06-25T23:04:20.128Z,14.96
2018-06-25T23:06:48.224Z,14.97
2018-06-25T23:09:16.372Z,14.76
2018-06-25T23:11:44.756Z,14.65
2018-06-25T23:14:13.000Z,14.55
2018-06-25T23:16:41.127Z,14.59
2018-06-25T23:19:09.200Z,14.59
2018-06-25T23:21:37.268Z,14.64
2018-06-25T23:24:05.351Z,14.60
2018-06-25T23:26:33.509Z,14.48
2018-06-25T23:29:01.774Z,14.47
2018-06-25T23:31:29.904Z,14.42
2018-06-25T23:33:57.988Z,14.34
2018-06-25T23:36:26.140Z,14.37
2018-06-25T23:38:54.216Z,14.40
2018-06-25T23:41:23.049Z,14.38
2018-06-25T23:43:51.122Z,14.39
2018-06-25T23:46:19.297Z,14.33
2018-06-25T23:48:47.436Z,14.30
2018-06-25T23:51:15.515Z,14.36
2018-06-25T23:53:43.665Z,14.35
2018-06-25T23:56:11.904Z,14.27
2018-06-25T23:58:39.996Z,14.13
